KRUE

Russellville Regional Airport

Russellville, Arkansas, USA
METAR KRUE 221753Z AUTO 11006KT 9SM OVC021 09/04 A3000 RMK AO2 SLP155 T00940044 10094 20061 58015
Observed Flight Rules
Jan-22 @ 17:53 UTC (an hour ago) Marginal Visual Flight Rules
Wind Visibility Clouds
110° at 6 knots 9 miles
  • Overcast at 2,100' AGL
Temperatures Readings
Current 9°C / 48°F
Dewpoint 4°C / 39°F
Humidity 71%
Altimeter 30" Hg
Pressure 1015.5 hPa
Elevation 115
METAR KRUE 221753Z AUTO 11006KT 9SM OVC021 09/04 A3000 RMK AO2 SLP155 T00940044 10094 20061 58015
Observed Flight Rules
Jan-22 @ 17:53 UTC
(an hour ago)
MVFR
Wind Visibility
110° at 6 knots 9 miles
Clouds
  • Overcast at 2,100' AGL
Temperature Dewpoint
9°C / 48°F 4°C / 39°F
Humidity Altimeter Pressure
71% 30" Hg 1015.5 hPa